sensor_id;sensor_type;location;lat;lon;timestamp;pressure;altitude;pressure_sealevel;temperature;humidity
19676;BME280;39539;52.202;9.876;2023-05-07T00:01:22;101316.06;;;9.75;100.00
19676;BME280;39539;52.202;9.876;2023-05-07T00:03:48;101289.44;;;9.69;100.00
19676;BME280;39539;52.202;9.876;2023-05-07T00:06:14;101301.59;;;9.78;100.00
19676;BME280;39539;52.202;9.876;2023-05-07T00:08:39;101311.72;;;9.89;100.00
19676;BME280;39539;52.202;9.876;2023-05-07T00:11:04;101293.91;;;9.83;100.00
19676;BME280;39539;52.202;9.876;2023-05-07T00:13:30;101303.88;;;9.81;100.00
19676;BME280;39539;52.202;9.876;2023-05-07T00:16:01;101308.34;;;9.80;100.00
19676;BME280;39539;52.202;9.876;2023-05-07T00:18:26;101296.75;;;9.66;100.00
19676;BME280;39539;52.202;9.876;2023-05-07T00:20:53;101301.84;;;9.68;100.00
19676;BME280;39539;52.202;9.876;2023-05-07T00:23:18;101307.81;;;9.70;100.00
19676;BME280;39539;52.202;9.876;2023-05-07T00:25:45;101293.00;;;9.61;100.00
19676;BME280;39539;52.202;9.876;2023-05-07T00:28:10;101294.75;;;9.69;100.00
19676;BME280;39539;52.202;9.876;2023-05-07T00:30:35;101267.97;;;9.49;100.00
19676;BME280;39539;52.202;9.876;2023-05-07T00:33:01;101287.69;;;9.61;100.00
19676;BME280;39539;52.202;9.876;2023-05-07T00:35:28;101278.34;;;9.65;100.00
19676;BME280;39539;52.202;9.876;2023-05-07T00:37:53;101283.41;;;9.60;100.00
19676;BME280;39539;52.202;9.876;2023-05-07T00:40:19;101275.44;;;9.60;100.00
19676;BME280;39539;52.202;9.876;2023-05-07T00:42:44;101264.66;;;9.47;100.00
19676;BME280;39539;52.202;9.876;2023-05-07T00:45:13;101256.31;;;9.50;100.00
19676;BME280;39539;52.202;9.876;2023-05-07T00:47:39;101265.47;;;9.47;100.00
19676;BME280;39539;52.202;9.876;2023-05-07T00:50:05;101276.81;;;9.41;100.00
19676;BME280;39539;52.202;9.876;2023-05-07T00:52:32;101265.41;;;9.40;100.00
19676;BME280;39539;52.202;9.876;2023-05-07T00:55:01;101251.13;;;9.27;100.00
19676;BME280;39539;52.202;9.876;2023-05-07T00:57:33;101277.38;;;9.36;100.00
19676;BME280;39539;52.202;9.876;2023-05-07T01:00:01;101288.91;;;9.43;100.00
19676;BME280;39539;52.202;9.876;2023-05-07T01:02:27;101278.84;;;9.39;100.00
19676;BME280;39539;52.202;9.876;2023-05-07T01:04:52;101276.63;;;9.28;100.00
19676;BME280;39539;52.202;9.876;2023-05-07T01:07:18;101279.50;;;9.26;100.00
19676;BME280;39539;52.202;9.876;2023-05-07T01:09:43;101261.09;;;9.25;100.00
19676;BME280;39539;52.202;9.876;2023-05-07T01:12:10;101282.22;;;9.33;100.00
19676;BME280;39539;52.202;9.876;2023-05-07T01:14:35;101284.88;;;9.33;100.00
19676;BME280;39539;52.202;9.876;2023-05-07T01:17:01;101278.56;;;9.19;100.00
19676;BME280;39539;52.202;9.876;2023-05-07T01:19:28;101292.03;;;9.32;100.00
19676;BME280;39539;52.202;9.876;2023-05-07T01:22:01;101291.28;;;9.38;100.00
19676;BME280;39539;52.202;9.876;2023-05-07T01:24:29;101293.28;;;9.36;100.00
19676;BME280;39539;52.202;9.876;2023-05-07T01:26:55;101286.72;;;9.32;100.00
19676;BME280;39539;52.202;9.876;2023-05-07T01:29:20;101284.44;;;9.29;100.00
19676;BME280;39539;52.202;9.876;2023-05-07T01:31:46;101286.78;;;9.39;100.00
19676;BME280;39539;52.202;9.876;2023-05-07T01:34:12;101290.91;;;9.41;100.00
19676;BME280;39539;52.202;9.876;2023-05-07T01:36:42;101297.03;;;9.27;100.00
19676;BME280;39539;52.202;9.876;2023-05-07T01:39:08;101295.31;;;9.34;100.00
19676;BME280;39539;52.202;9.876;2023-05-07T01:41:34;101279.88;;;9.23;100.00
19676;BME280;39539;52.202;9.876;2023-05-07T01:44:01;101290.63;;;9.21;100.00
19676;BME280;39539;52.202;9.876;2023-05-07T01:46:29;101261.00;;;9.18;100.00
19676;BME280;39539;52.202;9.876;2023-05-07T01:48:56;101284.16;;;9.24;100.00
19676;BME280;39539;52.202;9.876;2023-05-07T01:51:21;101287.38;;;9.34;100.00
19676;BME280;39539;52.202;9.876;2023-05-07T01:53:47;101281.03;;;9.20;100.00
19676;BME280;39539;52.202;9.876;2023-05-07T01:56:16;101279.22;;;9.21;100.00
19676;BME280;39539;52.202;9.876;2023-05-07T01:58:42;101283.22;;;9.17;100.00
19676;BME280;39539;52.202;9.876;2023-05-07T02:01:07;101277.81;;;9.25;100.00
19676;BME280;39539;52.202;9.876;2023-05-07T02:03:32;101274.25;;;9.33;100.00
19676;BME280;39539;52.202;9.876;2023-05-07T02:05:57;101272.34;;;9.27;100.00
19676;BME280;39539;52.202;9.876;2023-05-07T02:08:24;101288.63;;;9.38;100.00
19676;BME280;39539;52.202;9.876;2023-05-07T02:10:49;101275.91;;;9.34;100.00
19676;BME280;39539;52.202;9.876;2023-05-07T02:13:16;101279.13;;;9.29;100.00
19676;BME280;39539;52.202;9.876;2023-05-07T02:15:42;101274.72;;;9.36;100.00
19676;BME280;39539;52.202;9.876;2023-05-07T02:18:08;101296.41;;;9.40;100.00
19676;BME280;39539;52.202;9.876;2023-05-07T02:20:34;101298.88;;;9.27;100.00
19676;BME280;39539;52.202;9.876;2023-05-07T02:23:01;101291.28;;;9.38;100.00
19676;BME280;39539;52.202;9.876;2023-05-07T02:25:27;101285.31;;;9.36;100.00
19676;BME280;39539;52.202;9.876;2023-05-07T02:27:52;101309.13;;;9.44;100.00
19676;BME280;39539;52.202;9.876;2023-05-07T02:30:17;101313.03;;;9.34;100.00
19676;BME280;39539;52.202;9.876;2023-05-07T02:32:44;101303.81;;;9.30;100.00
19676;BME280;39539;52.202;9.876;2023-05-07T02:35:10;101306.56;;;9.36;100.00
19676;BME280;39539;52.202;9.876;2023-05-07T02:37:41;101301.91;;;9.38;100.00
19676;BME280;39539;52.202;9.876;2023-05-07T02:40:06;101308.31;;;9.44;100.00
19676;BME280;39539;52.202;9.876;2023-05-07T02:42:32;101283.78;;;9.27;100.00
19676;BME280;39539;52.202;9.876;2023-05-07T02:44:57;101297.69;;;9.29;100.00
19676;BME280;39539;52.202;9.876;2023-05-07T02:47:23;101313.16;;;9.40;100.00
19676;BME280;39539;52.202;9.876;2023-05-07T02:49:48;101319.94;;;9.43;100.00
19676;BME280;39539;52.202;9.876;2023-05-07T02:52:13;101314.63;;;9.43;100.00
19676;BME280;39539;52.202;9.876;2023-05-07T02:54:40;101304.72;;;9.37;100.00
19676;BME280;39539;52.202;9.876;2023-05-07T02:57:05;101296.41;;;9.40;100.00
19676;BME280;39539;52.202;9.876;2023-05-07T02:59:31;101310.50;;;9.40;100.00
19676;BME280;39539;52.202;9.876;2023-05-07T03:01:57;101299.88;;;9.40;100.00
19676;BME280;39539;52.202;9.876;2023-05-07T03:04:22;101293.41;;;9.43;100.00
19676;BME280;39539;52.202;9.876;2023-05-07T03:06:48;101299.25;;;9.38;100.00
19676;BME280;39539;52.202;9.876;2023-05-07T03:09:13;101283.69;;;9.35;100.00
19676;BME280;39539;52.202;9.876;2023-05-07T03:11:38;101284.44;;;9.29;100.00
19676;BME280;39539;52.202;9.876;2023-05-07T03:14:05;101288.63;;;9.24;100.00
19676;BME280;39539;52.202;9.876;2023-05-07T03:16:30;101283.59;;;9.29;100.00
19676;BME280;39539;52.202;9.876;2023-05-07T03:18:57;101283.59;;;9.14;100.00
19676;BME280;39539;52.202;9.876;2023-05-07T03:21:22;101294.66;;;9.32;100.00
19676;BME280;39539;52.202;9.876;2023-05-07T03:23:49;101287.38;;;9.34;100.00
19676;BME280;39539;52.202;9.876;2023-05-07T03:26:16;101269.88;;;9.25;100.00
19676;BME280;39539;52.202;9.876;2023-05-07T03:28:41;101288.06;;;9.28;100.00
19676;BME280;39539;52.202;9.876;2023-05-07T03:31:07;101279.94;;;9.30;100.00
19676;BME280;39539;52.202;9.876;2023-05-07T03:33:35;101274.56;;;9.23;100.00
19676;BME280;39539;52.202;9.876;2023-05-07T03:36:04;101279.00;;;9.08;100.00
19676;BME280;39539;52.202;9.876;2023-05-07T03:38:29;101265.50;;;9.17;100.00
19676;BME280;39539;52.202;9.876;2023-05-07T03:40:55;101253.22;;;9.16;100.00
19676;BME280;39539;52.202;9.876;2023-05-07T03:43:21;101273.16;;;9.12;100.00
19676;BME280;39539;52.202;9.876;2023-05-07T03:45:47;101269.97;;;9.17;100.00
19676;BME280;39539;52.202;9.876;2023-05-07T03:48:13;101260.09;;;9.11;100.00
19676;BME280;39539;52.202;9.876;2023-05-07T03:50:39;101270.31;;;9.14;100.00
19676;BME280;39539;52.202;9.876;2023-05-07T03:53:04;101264.94;;;9.07;100.00
19676;BME280;39539;52.202;9.876;2023-05-07T03:55:30;101283.31;;;9.09;100.00
19676;BME280;39539;52.202;9.876;2023-05-07T03:57:55;101277.66;;;9.12;100.00
19676;BME280;39539;52.202;9.876;2023-05-07T04:00:21;101273.78;;;8.99;100.00
19676;BME280;39539;52.202;9.876;2023-05-07T04:02:47;101265.84;;;8.99;100.00
19676;BME280;39539;52.202;9.876;2023-05-07T04:05:14;101286.81;;;9.09;100.00
19676;BME280;39539;52.202;9.876;2023-05-07T04:07:40;101289.09;;;9.12;100.00
19676;BME280;39539;52.202;9.876;2023-05-07T04:10:05;101285.88;;;9.02;100.00
19676;BME280;39539;52.202;9.876;2023-05-07T04:12:31;101312.94;;;8.97;100.00
19676;BME280;39539;52.202;9.876;2023-05-07T04:14:56;101289.16;;;8.89;100.00
19676;BME280;39539;52.202;9.876;2023-05-07T04:17:22;101290.88;;;8.97;100.00
19676;BME280;39539;52.202;9.876;2023-05-07T04:19:47;101273.03;;;8.91;100.00
19676;BME280;39539;52.202;9.876;2023-05-07T04:22:12;101307.91;;;9.03;100.00
19676;BME280;39539;52.202;9.876;2023-05-07T04:24:38;101306.28;;;9.16;100.00
19676;BME280;39539;52.202;9.876;2023-05-07T04:27:03;101293.72;;;8.95;100.00
19676;BME280;39539;52.202;9.876;2023-05-07T04:29:29;101312.50;;;9.09;100.00
19676;BME280;39539;52.202;9.876;2023-05-07T04:31:54;101315.16;;;9.09;100.00
19676;BME280;39539;52.202;9.876;2023-05-07T04:34:21;101323.53;;;8.97;100.00
19676;BME280;39539;52.202;9.876;2023-05-07T04:36:46;101316.56;;;8.96;100.00
19676;BME280;39539;52.202;9.876;2023-05-07T04:39:13;101312.56;;;9.01;100.00
19676;BME280;39539;52.202;9.876;2023-05-07T04:41:38;101317.41;;;8.97;100.00
19676;BME280;39539;52.202;9.876;2023-05-07T04:44:04;101310.19;;;9.06;100.00
19676;BME280;39539;52.202;9.876;2023-05-07T04:46:31;101321.06;;;9.11;100.00
19676;BME280;39539;52.202;9.876;2023-05-07T04:48:56;101317.91;;;9.15;100.00
19676;BME280;39539;52.202;9.876;2023-05-07T04:51:21;101330.78;;;9.04;100.00
19676;BME280;39539;52.202;9.876;2023-05-07T04:53:48;101315.66;;;8.89;100.00
19676;BME280;39539;52.202;9.876;2023-05-07T04:56:13;101308.69;;;8.88;100.00
19676;BME280;39539;52.202;9.876;2023-05-07T04:58:39;101313.72;;;8.83;100.00
19676;BME280;39539;52.202;9.876;2023-05-07T05:01:04;101333.88;;;9.07;100.00
19676;BME280;39539;52.202;9.876;2023-05-07T05:03:31;101328.66;;;9.14;100.00
19676;BME280;39539;52.202;9.876;2023-05-07T05:05:56;101336.91;;;9.19;100.00
19676;BME280;39539;52.202;9.876;2023-05-07T05:08:24;101344.44;;;9.30;100.00
19676;BME280;39539;52.202;9.876;2023-05-07T05:10:49;101329.25;;;9.24;100.00
19676;BME280;39539;52.202;9.876;2023-05-07T05:13:15;101338.75;;;9.33;100.00
19676;BME280;39539;52.202;9.876;2023-05-07T05:15:40;101342.59;;;9.31;100.00
19676;BME280;39539;52.202;9.876;2023-05-07T05:18:06;101347.06;;;9.30;100.00
19676;BME280;39539;52.202;9.876;2023-05-07T05:20:31;101331.16;;;9.15;100.00
19676;BME280;39539;52.202;9.876;2023-05-07T05:22:57;101346.53;;;9.20;100.00
19676;BME280;39539;52.202;9.876;2023-05-07T05:25:22;101339.69;;;9.26;100.00
19676;BME280;39539;52.202;9.876;2023-05-07T05:27:47;101346.78;;;9.25;100.00
19676;BME280;39539;52.202;9.876;2023-05-07T05:30:14;101351.94;;;9.27;100.00
19676;BME280;39539;52.202;9.876;2023-05-07T05:32:39;101343.53;;;9.23;100.00
19676;BME280;39539;52.202;9.876;2023-05-07T05:35:04;101357.03;;;9.28;100.00
19676;BME280;39539;52.202;9.876;2023-05-07T05:37:32;101344.69;;;9.20;100.00
19676;BME280;39539;52.202;9.876;2023-05-07T05:39:57;101350.75;;;9.29;100.00
19676;BME280;39539;52.202;9.876;2023-05-07T05:42:23;101373.25;;;9.33;100.00
19676;BME280;39539;52.202;9.876;2023-05-07T05:44:48;101356.06;;;9.29;100.00
19676;BME280;39539;52.202;9.876;2023-05-07T05:47:13;101373.81;;;9.43;100.00
19676;BME280;39539;52.202;9.876;2023-05-07T05:49:39;101366.22;;;9.26;100.00
19676;BME280;39539;52.202;9.876;2023-05-07T05:52:05;101363.44;;;9.19;100.00
19676;BME280;39539;52.202;9.876;2023-05-07T05:54:32;101355.47;;;9.19;100.00
19676;BME280;39539;52.202;9.876;2023-05-07T05:56:59;101370.97;;;9.30;100.00
19676;BME280;39539;52.202;9.876;2023-05-07T05:59:24;101362.56;;;9.41;100.00
19676;BME280;39539;52.202;9.876;2023-05-07T06:01:51;101344.63;;;9.43;100.00
19676;BME280;39539;52.202;9.876;2023-05-07T06:04:16;101353.31;;;9.52;100.00
19676;BME280;39539;52.202;9.876;2023-05-07T06:06:42;101342.25;;;9.49;100.00
19676;BME280;39539;52.202;9.876;2023-05-07T06:09:07;101334.00;;;9.43;100.00
19676;BME280;39539;52.202;9.876;2023-05-07T06:11:32;101326.69;;;9.46;100.00
19676;BME280;39539;52.202;9.876;2023-05-07T06:13:58;101340.69;;;9.54;100.00
19676;BME280;39539;52.202;9.876;2023-05-07T06:16:24;101358.63;;;9.67;100.00
19676;BME280;39539;52.202;9.876;2023-05-07T06:18:50;101358.16;;;9.78;100.00
19676;BME280;39539;52.202;9.876;2023-05-07T06:21:15;101350.63;;;9.82;100.00
19676;BME280;39539;52.202;9.876;2023-05-07T06:23:41;101351.03;;;9.94;100.00
19676;BME280;39539;52.202;9.876;2023-05-07T06:26:07;101349.34;;;9.93;100.00
19676;BME280;39539;52.202;9.876;2023-05-07T06:28:33;101353.78;;;9.85;100.00
19676;BME280;39539;52.202;9.876;2023-05-07T06:31:11;101360.34;;;9.89;100.00
19676;BME280;39539;52.202;9.876;2023-05-07T06:33:37;101355.41;;;9.86;100.00
19676;BME280;39539;52.202;9.876;2023-05-07T06:36:02;101345.69;;;9.94;100.00
19676;BME280;39539;52.202;9.876;2023-05-07T06:38:28;101353.91;;;9.99;100.00
19676;BME280;39539;52.202;9.876;2023-05-07T06:40:53;101369.56;;;10.08;100.00
19676;BME280;39539;52.202;9.876;2023-05-07T06:43:22;101356.34;;;10.15;100.00
19676;BME280;39539;52.202;9.876;2023-05-07T06:45:47;101357.00;;;10.17;100.00
19676;BME280;39539;52.202;9.876;2023-05-07T06:48:13;101364.22;;;10.38;100.00
19676;BME280;39539;52.202;9.876;2023-05-07T06:50:38;101352.75;;;10.38;100.00
19676;BME280;39539;52.202;9.876;2023-05-07T06:53:04;101362.94;;;10.34;100.00
19676;BME280;39539;52.202;9.876;2023-05-07T06:55:29;101336.28;;;10.27;100.00
19676;BME280;39539;52.202;9.876;2023-05-07T06:57:54;101360.34;;;10.41;100.00
19676;BME280;39539;52.202;9.876;2023-05-07T07:00:20;101347.38;;;10.31;100.00
19676;BME280;39539;52.202;9.876;2023-05-07T07:02:46;101359.16;;;10.43;100.00
19676;BME280;39539;52.202;9.876;2023-05-07T07:05:12;101360.63;;;10.46;100.00
19676;BME280;39539;52.202;9.876;2023-05-07T07:07:37;101367.53;;;10.62;100.00
19676;BME280;39539;52.202;9.876;2023-05-07T07:10:03;101369.28;;;10.54;100.00
19676;BME280;39539;52.202;9.876;2023-05-07T07:12:29;101332.88;;;10.55;100.00
19676;BME280;39539;52.202;9.876;2023-05-07T07:14:55;101359.97;;;10.87;100.00
19676;BME280;39539;52.202;9.876;2023-05-07T07:17:20;101361.72;;;11.01;98.70
19676;BME280;39539;52.202;9.876;2023-05-07T07:19:47;101337.72;;;10.94;97.19
19676;BME280;39539;52.202;9.876;2023-05-07T07:22:12;101350.94;;;11.09;96.61
19676;BME280;39539;52.202;9.876;2023-05-07T07:24:38;101337.22;;;11.40;96.21
19676;BME280;39539;52.202;9.876;2023-05-07T07:27:03;101362.56;;;11.99;92.32
19676;BME280;39539;52.202;9.876;2023-05-07T07:29:28;101356.97;;;12.55;87.28
19676;BME280;39539;52.202;9.876;2023-05-07T07:31:56;101352.91;;;12.86;85.07
19676;BME280;39539;52.202;9.876;2023-05-07T07:34:21;101337.50;;;13.08;81.32
19676;BME280;39539;52.202;9.876;2023-05-07T07:36:46;101345.69;;;12.93;80.69
19676;BME280;39539;52.202;9.876;2023-05-07T07:39:12;101330.50;;;13.27;80.53
19676;BME280;39539;52.202;9.876;2023-05-07T07:41:37;101336.94;;;13.84;77.29
19676;BME280;39539;52.202;9.876;2023-05-07T07:44:03;101329.09;;;14.28;75.07
19676;BME280;39539;52.202;9.876;2023-05-07T07:46:32;101329.28;;;13.95;75.32
19676;BME280;39539;52.202;9.876;2023-05-07T07:48:57;101330.91;;;13.37;79.11
19676;BME280;39539;52.202;9.876;2023-05-07T07:51:26;101304.66;;;12.81;85.01
19676;BME280;39539;52.202;9.876;2023-05-07T07:53:51;101298.66;;;13.19;83.14
19676;BME280;39539;52.202;9.876;2023-05-07T07:56:17;101322.09;;;12.64;83.41
19676;BME280;39539;52.202;9.876;2023-05-07T07:58:45;101315.06;;;12.23;86.67
19676;BME280;39539;52.202;9.876;2023-05-07T08:01:20;101325.81;;;12.63;85.35
19676;BME280;39539;52.202;9.876;2023-05-07T08:03:45;101317.66;;;11.96;89.76
19676;BME280;39539;52.202;9.876;2023-05-07T08:06:10;101330.03;;;12.24;89.47
19676;BME280;39539;52.202;9.876;2023-05-07T08:08:36;101312.59;;;12.15;88.18
19676;BME280;39539;52.202;9.876;2023-05-07T08:11:01;101318.69;;;11.95;89.00
19676;BME280;39539;52.202;9.876;2023-05-07T08:13:26;101316.97;;;11.81;90.54
19676;BME280;39539;52.202;9.876;2023-05-07T08:15:52;101325.47;;;11.63;91.96
19676;BME280;39539;52.202;9.876;2023-05-07T08:18:17;101324.72;;;11.76;91.69
19676;BME280;39539;52.202;9.876;2023-05-07T08:20:43;101322.69;;;11.78;91.52
19676;BME280;39539;52.202;9.876;2023-05-07T08:23:08;101308.91;;;11.61;92.38
19676;BME280;39539;52.202;9.876;2023-05-07T08:25:36;101322.00;;;11.62;93.78
19676;BME280;39539;52.202;9.876;2023-05-07T08:28:02;101327.94;;;11.64;93.88
19676;BME280;39539;52.202;9.876;2023-05-07T08:30:28;101311.88;;;11.86;92.30
19676;BME280;39539;52.202;9.876;2023-05-07T08:32:54;101340.44;;;12.05;92.32
19676;BME280;39539;52.202;9.876;2023-05-07T08:35:19;101314.16;;;11.89;90.11
19676;BME280;39539;52.202;9.876;2023-05-07T08:37:45;101333.66;;;11.96;91.56
19676;BME280;39539;52.202;9.876;2023-05-07T08:40:10;101327.09;;;12.05;90.20
19676;BME280;39539;52.202;9.876;2023-05-07T08:42:36;101318.53;;;12.17;90.18
19676;BME280;39539;52.202;9.876;2023-05-07T08:45:04;101332.63;;;11.97;91.24
19676;BME280;39539;52.202;9.876;2023-05-07T08:47:40;101345.22;;;12.30;89.66
19676;BME280;39539;52.202;9.876;2023-05-07T08:50:07;101337.00;;;12.25;88.84
19676;BME280;39539;52.202;9.876;2023-05-07T08:52:33;101341.44;;;11.98;89.69
19676;BME280;39539;52.202;9.876;2023-05-07T08:54:59;101348.66;;;12.04;91.10
19676;BME280;39539;52.202;9.876;2023-05-07T08:57:25;101326.25;;;11.91;91.08
19676;BME280;39539;52.202;9.876;2023-05-07T08:59:50;101343.72;;;12.07;91.05
19676;BME280;39539;52.202;9.876;2023-05-07T09:02:16;101335.59;;;12.29;90.50
19676;BME280;39539;52.202;9.876;2023-05-07T09:04:44;101330.28;;;12.42;89.39
19676;BME280;39539;52.202;9.876;2023-05-07T09:07:11;101335.22;;;12.52;88.75
19676;BME280;39539;52.202;9.876;2023-05-07T09:09:37;101334.56;;;12.36;88.55
19676;BME280;39539;52.202;9.876;2023-05-07T09:12:02;101326.97;;;12.27;89.19
19676;BME280;39539;52.202;9.876;2023-05-07T09:14:29;101322.88;;;12.31;90.45
19676;BME280;39539;52.202;9.876;2023-05-07T09:16:56;101332.13;;;12.42;89.88
19676;BME280;39539;52.202;9.876;2023-05-07T09:19:26;101315.94;;;12.43;89.80
19676;BME280;39539;52.202;9.876;2023-05-07T09:21:59;101317.84;;;11.88;93.24
19676;BME280;39539;52.202;9.876;2023-05-07T09:24:25;101316.63;;;11.97;92.71
19676;BME280;39539;52.202;9.876;2023-05-07T09:26:50;101297.16;;;11.90;93.81
19676;BME280;39539;52.202;9.876;2023-05-07T09:29:16;101317.94;;;12.28;92.03
19676;BME280;39539;52.202;9.876;2023-05-07T09:31:42;101315.69;;;12.25;91.38
19676;BME280;39539;52.202;9.876;2023-05-07T09:34:07;101308.94;;;12.29;90.79
19676;BME280;39539;52.202;9.876;2023-05-07T09:36:33;101321.91;;;12.72;89.36
19676;BME280;39539;52.202;9.876;2023-05-07T09:39:01;101330.94;;;12.97;86.18
19676;BME280;39539;52.202;9.876;2023-05-07T09:41:29;101328.91;;;12.99;86.64
19676;BME280;39539;52.202;9.876;2023-05-07T09:43:55;101310.22;;;12.86;87.62
19676;BME280;39539;52.202;9.876;2023-05-07T09:46:25;101318.81;;;12.62;87.60
19676;BME280;39539;52.202;9.876;2023-05-07T09:48:57;101304.44;;;12.96;87.81
19676;BME280;39539;52.202;9.876;2023-05-07T09:51:28;101320.03;;;12.52;88.18
19676;BME280;39539;52.202;9.876;2023-05-07T09:53:54;101315.94;;;12.56;88.94
19676;BME280;39539;52.202;9.876;2023-05-07T09:56:21;101314.72;;;12.52;89.76
19676;BME280;39539;52.202;9.876;2023-05-07T09:58:48;101322.72;;;12.59;87.88
19676;BME280;39539;52.202;9.876;2023-05-07T10:01:17;101307.13;;;12.56;88.00
19676;BME280;39539;52.202;9.876;2023-05-07T10:03:44;101319.88;;;12.74;87.71
19676;BME280;39539;52.202;9.876;2023-05-07T10:06:11;101289.28;;;12.83;85.13
19676;BME280;39539;52.202;9.876;2023-05-07T10:08:39;101310.22;;;12.86;86.49
19676;BME280;39539;52.202;9.876;2023-05-07T10:11:05;101319.63;;;12.95;86.03
19676;BME280;39539;52.202;9.876;2023-05-07T10:13:33;101312.44;;;12.96;85.39
19676;BME280;39539;52.202;9.876;2023-05-07T10:16:01;101313.50;;;12.48;85.90
19676;BME280;39539;52.202;9.876;2023-05-07T10:18:33;101303.25;;;12.85;87.16
19676;BME280;39539;52.202;9.876;2023-05-07T10:21:11;101329.47;;;13.21;85.65
19676;BME280;39539;52.202;9.876;2023-05-07T10:23:41;101305.03;;;13.18;87.01
19676;BME280;39539;52.202;9.876;2023-05-07T10:26:09;101314.31;;;13.09;84.57
19676;BME280;39539;52.202;9.876;2023-05-07T10:28:39;101318.78;;;13.21;86.60
19676;BME280;39539;52.202;9.876;2023-05-07T10:33:46;101321.47;;;13.01;87.85
19676;BME280;39539;52.202;9.876;2023-05-07T10:36:13;101326.00;;;13.28;84.79
19676;BME280;39539;52.202;9.876;2023-05-07T10:38:39;101329.28;;;13.16;84.36
19676;BME280;39539;52.202;9.876;2023-05-07T10:41:06;101327.84;;;13.07;85.76
19676;BME280;39539;52.202;9.876;2023-05-07T10:43:42;101327.41;;;13.23;85.74
19676;BME280;39539;52.202;9.876;2023-05-07T10:46:22;101313.84;;;13.38;83.98
19676;BME280;39539;52.202;9.876;2023-05-07T10:51:30;101304.13;;;13.64;82.47
19676;BME280;39539;52.202;9.876;2023-05-07T10:56:41;101321.06;;;13.89;80.74
19676;BME280;39539;52.202;9.876;2023-05-07T11:01:56;101322.84;;;14.41;77.35
19676;BME280;39539;52.202;9.876;2023-05-07T11:04:23;101322.38;;;14.19;77.86
19676;BME280;39539;52.202;9.876;2023-05-07T11:09:59;101304.22;;;14.27;76.39
19676;BME280;39539;52.202;9.876;2023-05-07T11:15:09;101306.44;;;13.54;84.50
19676;BME280;39539;52.202;9.876;2023-05-07T11:17:35;101319.94;;;13.65;81.85
19676;BME280;39539;52.202;9.876;2023-05-07T11:20:16;101305.88;;;13.83;81.59
19676;BME280;39539;52.202;9.876;2023-05-07T11:22:42;101309.69;;;14.01;82.87
19676;BME280;39539;52.202;9.876;2023-05-07T11:25:08;101310.25;;;13.71;81.42
19676;BME280;39539;52.202;9.876;2023-05-07T11:27:36;101299.19;;;13.67;83.25
19676;BME280;39539;52.202;9.876;2023-05-07T11:30:02;101303.00;;;13.85;80.84
19676;BME280;39539;52.202;9.876;2023-05-07T11:32:29;101313.00;;;13.44;84.87
19676;BME280;39539;52.202;9.876;2023-05-07T11:34:57;101324.91;;;13.55;83.92
19676;BME280;39539;52.202;9.876;2023-05-07T11:37:23;101319.00;;;13.91;81.85
19676;BME280;39539;52.202;9.876;2023-05-07T11:40:03;101315.16;;;14.19;82.30
19676;BME280;39539;52.202;9.876;2023-05-07T11:42:33;101324.50;;;14.42;79.05
19676;BME280;39539;52.202;9.876;2023-05-07T11:45:00;101323.63;;;14.16;80.46
19676;BME280;39539;52.202;9.876;2023-05-07T11:47:25;101309.22;;;14.17;79.85
19676;BME280;39539;52.202;9.876;2023-05-07T11:49:52;101306.09;;;14.20;78.90
19676;BME280;39539;52.202;9.876;2023-05-07T11:52:19;101298.34;;;14.12;78.75
19676;BME280;39539;52.202;9.876;2023-05-07T11:54:49;101305.59;;;14.05;80.07
19676;BME280;39539;52.202;9.876;2023-05-07T11:57:15;101298.00;;;14.02;79.84
19676;BME280;39539;52.202;9.876;2023-05-07T11:59:41;101293.66;;;14.01;79.02
19676;BME280;39539;52.202;9.876;2023-05-07T12:02:07;101299.47;;;14.29;78.50
19676;BME280;39539;52.202;9.876;2023-05-07T12:04:33;101317.44;;;14.54;75.87
19676;BME280;39539;52.202;9.876;2023-05-07T12:06:58;101291.34;;;14.11;78.25
19676;BME280;39539;52.202;9.876;2023-05-07T12:09:24;101307.06;;;14.32;77.97
19676;BME280;39539;52.202;9.876;2023-05-07T12:11:51;101317.09;;;14.37;78.31
19676;BME280;39539;52.202;9.876;2023-05-07T12:14:16;101312.56;;;14.44;77.81
19676;BME280;39539;52.202;9.876;2023-05-07T12:16:42;101316.91;;;14.38;78.50
19676;BME280;39539;52.202;9.876;2023-05-07T12:19:08;101294.28;;;14.66;76.24
19676;BME280;39539;52.202;9.876;2023-05-07T12:21:38;101319.25;;;14.85;74.15
19676;BME280;39539;52.202;9.876;2023-05-07T12:24:04;101292.84;;;14.89;74.06
19676;BME280;39539;52.202;9.876;2023-05-07T12:26:30;101305.59;;;14.93;74.37
19676;BME280;39539;52.202;9.876;2023-05-07T12:28:57;101306.66;;;14.67;76.21
19676;BME280;39539;52.202;9.876;2023-05-07T12:31:22;101297.13;;;14.71;74.96
19676;BME280;39539;52.202;9.876;2023-05-07T12:33:51;101293.53;;;14.59;76.30
19676;BME280;39539;52.202;9.876;2023-05-07T12:36:17;101296.22;;;14.84;75.22
19676;BME280;39539;52.202;9.876;2023-05-07T12:38:42;101285.69;;;14.64;74.33
19676;BME280;39539;52.202;9.876;2023-05-07T12:41:09;101300.75;;;14.84;74.67
19676;BME280;39539;52.202;9.876;2023-05-07T12:43:35;101299.38;;;14.74;76.33
19676;BME280;39539;52.202;9.876;2023-05-07T12:46:04;101306.41;;;14.37;76.11
19676;BME280;39539;52.202;9.876;2023-05-07T12:48:30;101293.28;;;14.29;76.94
19676;BME280;39539;52.202;9.876;2023-05-07T12:50:59;101267.28;;;14.11;78.48
19676;BME280;39539;52.202;9.876;2023-05-07T12:53:26;101278.41;;;14.40;75.78
19676;BME280;39539;52.202;9.876;2023-05-07T12:55:54;101284.41;;;14.67;76.26
19676;BME280;39539;52.202;9.876;2023-05-07T12:58:25;101284.25;;;14.87;75.66
19676;BME280;39539;52.202;9.876;2023-05-07T13:00:51;101287.56;;;14.57;74.96
19676;BME280;39539;52.202;9.876;2023-05-07T13:03:27;101290.16;;;14.38;77.25